CDT,Max TemperatureF,Mean TemperatureF,Min TemperatureF,Max Dew PointF,MeanDew PointF,Min DewpointF,Max Humidity, Mean Humidity, Min Humidity, Max Sea Level PressureIn, Mean Sea Level PressureIn, Min Sea Level PressureIn, Max VisibilityMiles, Mean VisibilityMiles, Min VisibilityMiles, Max Wind SpeedMPH, Mean Wind SpeedMPH, Max Gust SpeedMPH,PrecipitationIn, CloudCover, Events, WindDirDegrees
2013-5-1,71,66,62,55,53,50,77,63,49,30.17,30.12,30.07,10,10,10,12,5,22,0.00,1,,104
2013-5-2,68,64,59,57,53,50,77,70,60,30.17,30.13,30.10,10,10,5,15,7,24,0.00,5,Rain,79
2013-5-3,68,64,59,54,52,48,82,68,52,30.10,29.99,29.90,10,10,4,16,8,29,0.02,6,Rain,101
2013-5-4,59,52,44,54,47,43,100,90,82,29.95,29.91,29.85,10,5,2,18,4,33,0.10,8,Rain,134
2013-5-5,60,52,44,48,44,36,100,84,39,29.91,29.83,29.77,10,9,2,16,0,26,0.11,8,Rain-Thunderstorm,348
2013-5-6,53,50,46,48,46,43,93,88,82,29.92,29.84,29.77,10,8,0,7,0,,0.04,8,Fog-Rain,213
2013-5-7,69,58,46,52,47,43,94,76,38,30.01,29.96,29.89,10,8,0,13,1,20,0.06,5,Fog,292
2013-5-8,75,60,44,57,51,43,100,73,44,30.08,30.04,29.99,10,9,0,10,2,,0.01,3,Fog-Rain,279
2013-5-9,78,64,50,59,53,48,94,67,34,30.14,30.09,30.04,10,9,2,12,1,,0.05,2,,254
2013-5-10,73,64,55,57,54,52,94,71,50,30.09,30.02,29.96,10,9,5,14,2,23,0.12,3,,210
2013-5-11,73,64,53,63,58,52,94,80,57,30.02,29.96,29.92,10,9,2,12,1,,0.19,5,Rain,236
2013-5-12,64,53,42,50,37,28,100,58,26,30.16,30.09,30.01,10,9,1,16,3,20,0.13,0,,337
2013-5-13,68,52,35,43,36,28,100,61,24,30.27,30.21,30.15,10,10,10,14,2,20,0.05,0,,301
2013-5-14,80,61,42,55,47,41,93,63,28,30.24,30.18,30.10,10,10,7,15,2,22,0.06,0,,230
2013-5-15,82,66,50,55,52,46,94,64,28,30.19,30.11,30.04,10,10,7,13,2,18,0.02,0,,260
2013-5-16,80,68,55,59,55,48,94,67,34,30.10,30.04,29.99,10,10,7,12,1,,0.00,1,,221
2013-5-17,77,68,59,64,59,54,94,75,44,30.09,30.05,30.02,10,9,2,6,0,9,0.08,5,Rain-Thunderstorm,200
2013-5-18,75,70,64,68,65,63,94,85,73,30.07,30.03,30.01,10,9,4,8,0,,0.13,8,Rain-Thunderstorm,230
2013-5-19,77,68,59,68,64,57,94,87,61,30.10,30.04,29.99,10,6,0,12,0,16,0.09,6,Fog-Rain-Thunderstorm,107
2013-5-20,80,68,55,64,60,54,94,76,51,30.11,30.05,30.01,10,9,2,0,0,,0.02,2,,-1
2013-5-21,86,72,59,68,62,57,94,71,37,30.06,29.99,29.89,10,8,3,13,2,93,0.09,1,,214
2013-5-22,82,73,64,68,63,61,94,77,48,29.96,29.92,29.88,10,8,1,20,3,45,0.06,2,Rain-Thunderstorm,199
2013-5-23,80,71,62,66,58,52,100,68,37,30.07,29.99,29.93,10,7,0,18,4,25,0.24,5,Fog,280
2013-5-24,73,62,50,54,47,37,94,61,27,30.28,30.19,30.06,10,10,7,13,4,22,0.00,1,,4
2013-5-25,77,60,44,50,42,28,93,59,19,30.33,30.26,30.21,10,10,10,10,2,,0.09,0,,15
2013-5-26,82,64,46,59,48,43,93,61,26,30.27,30.21,30.16,10,10,10,7,1,,0.00,0,,321
2013-5-27,86,70,55,61,54,46,94,63,28,30.22,30.15,30.10,10,10,10,14,3,21,0.22,0,,225
2013-5-28,82,70,59,61,55,50,88,59,35,30.18,30.13,30.09,10,10,7,10,2,,0.05,0,,187
2013-5-29,86,75,64,63,58,52,73,55,40,30.20,30.14,30.09,10,10,10,12,4,18,0.00,1,,136
2013-5-30,82,76,69,64,62,59,78,63,48,30.22,30.15,30.09,10,10,10,10,4,16,0.07,3,,127
2013-5-31,86,78,69,64,62,59,78,61,40,30.17,30.10,30.05,10,10,10,10,4,16,0.03,3,,170